Lundstrom Tide — YJTE2 — position and weather

sailwx.info

Track history (hours):
 
Tides and Currents Weather Stations Pressure Air Temp Water Temp Dewpoint Dewpoint Depression Visibility Wind Speed Wind Dir Waves Ship Positions

Lundstrom Tide

Last reported at 2017-Oct-20 13:21 UTC. Time now 2017-Oct-20 18:18 UTC.
Position N 32°17' E 032°20'.

Length 88 m; draft 6 m.

Type: Other ship. MMSI: 577129000.

Date/timePositionNaut miles runAvg speedWind from/ knotsBaromVisibWave heightAir tempDewpointWater temp
2017-Oct-20 13:21N 32°17' E 032°20'610.4
2017-Oct-20 12:44N 32°23' E 032°20'16 1.1
2017-Oct-19 22:29N 32°07' E 032°20'53 7.9
2017-Oct-19 15:44N 31°14' E 032°18'0 0.0
2017-Oct-19 15:29N 31°14' E 032°18'0 0.0
2017-Oct-19 15:01N 31°14' E 032°18'0 0.0
2017-Oct-19 14:29N 31°14' E 032°18'2 0.1
2017-Oct-18 20:32N 31°15' E 032°19'0 7.8
2017-Oct-18 20:30N 31°16' E 032°19'4 6.8
2017-Oct-18 19:53N 31°19' E 032°22'2 1.0
2017-Oct-18 18:17N 31°20' E 032°21'0 0.0
2017-Oct-18 18:00N 31°20' E 032°21'16 7.8
2017-Oct-18 15:55N 31°36' E 032°21'410.2
2017-Oct-18 15:30N 31°41' E 032°21'  
Track history (hours):
 
Tides and Currents Weather Stations Pressure Air Temp Water Temp Dewpoint Dewpoint Depression Visibility Wind Speed Wind Dir Waves Ship Positions

Lundstrom Tide

Last reported at 2017-Oct-20 13:21 UTC. Time now 2017-Oct-20 18:18 UTC.
Position N 32°17' E 032°20'.

Length 88 m; draft 6 m.

Type: Other ship. MMSI: 577129000.

Date/timePositionNaut miles runAvg speedWind from/ knotsBaromVisibWave heightAir tempDewpointWater temp
2017-Oct-20 13:21N 32°17' E 032°20'610.4
2017-Oct-20 12:44N 32°23' E 032°20'16 1.1
2017-Oct-19 22:29N 32°07' E 032°20'53 7.9
2017-Oct-19 15:44N 31°14' E 032°18'0 0.0
2017-Oct-19 15:29N 31°14' E 032°18'0 0.0
2017-Oct-19 15:01N 31°14' E 032°18'0 0.0
2017-Oct-19 14:29N 31°14' E 032°18'2 0.1
2017-Oct-18 20:32N 31°15' E 032°19'0 7.8
2017-Oct-18 20:30N 31°16' E 032°19'4 6.8
2017-Oct-18 19:53N 31°19' E 032°22'2 1.0
2017-Oct-18 18:17N 31°20' E 032°21'0 0.0
2017-Oct-18 18:00N 31°20' E 032°21'16 7.8
2017-Oct-18 15:55N 31°36' E 032°21'410.2
2017-Oct-18 15:30N 31°41' E 032°21'  

Dump ship's entire track history